Time;durP1;ratioP1;P1;durP2;ratioP2;P2;SDS_P1;SDS_P2;PMS_P1;PMS_P2;Temp;Humidity;BMP_temperature;BMP_pressure;BME280_temperature;BME280_humidity;BME280_pressure;Samples;Min_cycle;Max_cycle;Signal;HPM_P1;HPM_P2
2021/04/27 00:00:13;;;;;;;5.28;3.55;;;;;;;;;;5079868;28;20217;-55
2021/04/27 00:02:40;;;;;;;5.55;3.45;;;;;;;;;;5096494;28;20221;-57
2021/04/27 00:05:09;;;;;;;12.27;3.85;;;;;;;;;;5095542;28;20210;-61
2021/04/27 00:07:36;;;;;;;7.55;3.40;;;;;;;;;;5076632;28;20209;-56
2021/04/27 00:10:04;;;;;;;4.55;2.63;;;;;;;;;;5075966;28;20203;-58
2021/04/27 00:12:49;;;;;;;4.68;3.00;;;;;;;;;;5077147;28;20224;-54
2021/04/27 00:15:18;;;;;;;6.70;2.95;;;;;;;;;;5088809;28;20241;-54
2021/04/27 00:17:44;;;;;;;6.60;2.90;;;;;;;;;;5096278;28;20213;-54
2021/04/27 00:20:12;;;;;;;6.68;2.95;;;;;;;;;;5094986;28;20210;-53
2021/04/27 00:22:39;;;;;;;3.90;2.67;;;;;;;;;;5078306;28;20247;-56
2021/04/27 00:25:12;;;;;;;6.47;2.90;;;;;;;;;;5095398;28;20217;-52
2021/04/27 00:27:39;;;;;;;6.75;3.30;;;;;;;;;;5090684;28;20218;-52
2021/04/27 00:30:08;;;;;;;7.95;3.00;;;;;;;;;;5075783;28;20207;-54
2021/04/27 00:32:35;;;;;;;4.97;3.20;;;;;;;;;;5075466;28;20194;-56
2021/04/27 00:35:02;;;;;;;7.55;2.63;;;;;;;;;;5094554;28;20213;-58
2021/04/27 00:37:29;;;;;;;5.53;2.90;;;;;;;;;;5095906;28;20662;-55
2021/04/27 00:39:56;;;;;;;7.13;2.70;;;;;;;;;;5089712;28;20213;-57
2021/04/27 00:42:30;;;;;;;5.65;3.25;;;;;;;;;;5093276;28;20206;-49
2021/04/27 00:44:57;;;;;;;5.70;2.47;;;;;;;;;;5095638;28;20245;-50
2021/04/27 00:47:38;;;;;;;5.13;2.42;;;;;;;;;;5092577;28;20199;-57
2021/04/27 00:50:06;;;;;;;5.10;3.00;;;;;;;;;;5067697;28;20235;-57
2021/04/27 00:52:33;;;;;;;4.00;2.50;;;;;;;;;;5055195;28;20212;-57
2021/04/27 00:55:00;;;;;;;8.45;2.20;;;;;;;;;;5055009;28;20284;-57
2021/04/27 00:57:26;;;;;;;6.88;2.90;;;;;;;;;;5055748;28;20298;-54
2021/04/27 00:59:55;;;;;;;6.10;2.60;;;;;;;;;;5056611;28;20234;-58
2021/04/27 01:02:22;;;;;;;5.85;3.00;;;;;;;;;;5056257;28;20222;-57
2021/04/27 01:04:50;;;;;;;5.47;2.67;;;;;;;;;;5055440;28;20225;-54
2021/04/27 01:07:23;;;;;;;4.53;3.00;;;;;;;;;;5055147;28;20201;-57
2021/04/27 01:09:53;;;;;;;4.40;2.45;;;;;;;;;;5055155;28;20219;-57
2021/04/27 01:12:23;;;;;;;4.22;2.30;;;;;;;;;;5054946;28;20212;-53
2021/04/27 01:15:05;;;;;;;5.35;2.60;;;;;;;;;;5055300;28;20205;-57
2021/04/27 01:17:35;;;;;;;5.80;2.30;;;;;;;;;;5055142;28;20218;-52
2021/04/27 01:20:09;;;;;;;4.68;2.88;;;;;;;;;;5054827;28;20195;-52
2021/04/27 01:22:45;;;;;;;4.07;2.25;;;;;;;;;;5054834;28;20211;-57
2021/04/27 01:25:21;;;;;;;6.93;2.60;;;;;;;;;;5055541;28;20231;-53
2021/04/27 01:30:40;;;;;;;7.60;2.72;;;;;;;;;;5054233;28;20210;-55
2021/04/27 01:33:08;;;;;;;7.07;3.33;;;;;;;;;;5055465;28;20211;-55
2021/04/27 01:35:40;;;;;;;4.55;2.60;;;;;;;;;;5055444;28;20220;-50
2021/04/27 01:38:07;;;;;;;4.90;2.42;;;;;;;;;;5055351;28;20198;-55
2021/04/27 01:40:34;;;;;;;6.47;2.70;;;;;;;;;;5055774;28;20219;-49
2021/04/27 01:43:05;;;;;;;6.28;2.30;;;;;;;;;;5056062;28;20710;-52
2021/04/27 01:45:37;;;;;;;7.63;2.63;;;;;;;;;;5055688;28;20246;-54
2021/04/27 01:48:15;;;;;;;6.28;2.90;;;;;;;;;;5056034;28;20190;-59
2021/04/27 01:50:43;;;;;;;5.75;2.42;;;;;;;;;;5056194;28;20231;-52
2021/04/27 01:53:12;;;;;;;8.60;3.22;;;;;;;;;;5056397;28;20225;-58
2021/04/27 01:55:39;;;;;;;5.68;3.00;;;;;;;;;;5055748;28;20211;-55
2021/04/27 01:58:11;;;;;;;5.32;2.92;;;;;;;;;;5056298;28;20215;-49
2021/04/27 02:00:47;;;;;;;4.00;2.03;;;;;;;;;;5054868;28;20187;-54
2021/04/27 02:03:15;;;;;;;4.97;2.47;;;;;;;;;;5053530;28;20211;-53
2021/04/27 02:05:42;;;;;;;7.00;3.10;;;;;;;;;;5054814;28;20316;-59
2021/04/27 02:08:09;;;;;;;3.85;2.30;;;;;;;;;;5054716;28;20245;-55
2021/04/27 02:10:36;;;;;;;4.65;2.42;;;;;;;;;;5058655;28;20266;-53
2021/04/27 02:13:05;;;;;;;4.97;2.50;;;;;;;;;;5059039;28;20207;-51
2021/04/27 02:15:45;;;;;;;4.43;2.58;;;;;;;;;;5060561;28;20198;-53
2021/04/27 02:18:18;;;;;;;3.95;2.65;;;;;;;;;;5059318;28;20222;-58
2021/04/27 02:20:50;;;;;;;8.60;3.33;;;;;;;;;;5059626;28;20253;-57
2021/04/27 02:23:20;;;;;;;6.35;2.30;;;;;;;;;;5059638;28;20207;-56
2021/04/27 02:25:48;;;;;;;4.57;3.40;;;;;;;;;;5059973;28;20282;-51
2021/04/27 02:28:16;;;;;;;4.53;2.50;;;;;;;;;;5060127;28;20192;-56
2021/04/27 02:30:57;;;;;;;6.65;2.30;;;;;;;;;;5059626;28;20233;-56
2021/04/27 02:33:26;;;;;;;7.55;2.50;;;;;;;;;;5058758;28;20198;-60
2021/04/27 02:35:54;;;;;;;7.03;2.70;;;;;;;;;;5059207;28;20203;-55
2021/04/27 02:38:22;;;;;;;5.90;3.42;;;;;;;;;;5059352;28;20207;-59
2021/04/27 02:40:51;;;;;;;5.30;2.20;;;;;;;;;;5058455;28;20219;-53
2021/04/27 02:43:27;;;;;;;4.68;2.35;;;;;;;;;;5058415;28;20218;-58
2021/04/27 02:45:55;;;;;;;4.55;3.03;;;;;;;;;;5058495;28;20237;-53
2021/04/27 02:48:23;;;;;;;4.25;2.50;;;;;;;;;;5058743;28;20199;-54
2021/04/27 02:50:52;;;;;;;8.95;3.05;;;;;;;;;;5076721;28;20238;-57
2021/04/27 02:53:20;;;;;;;6.60;3.03;;;;;;;;;;5078149;28;20199;-56
2021/04/27 02:55:47;;;;;;;8.15;2.88;;;;;;;;;;5077918;28;20411;-55
2021/04/27 02:58:15;;;;;;;4.75;2.70;;;;;;;;;;5078573;28;20194;-53
2021/04/27 03:00:42;;;;;;;5.90;2.92;;;;;;;;;;5060457;28;20230;-52
2021/04/27 03:03:18;;;;;;;8.27;2.80;;;;;;;;;;5058872;28;20202;-51
2021/04/27 03:05:45;;;;;;;4.03;2.55;;;;;;;;;;5041565;28;20314;-59
2021/04/27 03:08:19;;;;;;;3.20;1.63;;;;;;;;;;5061052;28;20241;-56
2021/04/27 03:10:56;;;;;;;11.10;3.00;;;;;;;;;;5077189;28;20198;-58
2021/04/27 03:13:23;;;;;;;4.60;2.60;;;;;;;;;;5067214;28;20231;-54
2021/04/27 03:15:49;;;;;;;8.02;2.80;;;;;;;;;;5058207;28;20219;-53
2021/04/27 03:18:22;;;;;;;3.85;2.40;;;;;;;;;;5058703;28;20192;-54
2021/04/27 03:20:49;;;;;;;6.20;2.65;;;;;;;;;;5057425;28;20202;-54
2021/04/27 03:23:17;;;;;;;4.57;2.15;;;;;;;;;;5058031;28;20219;-58
2021/04/27 03:25:46;;;;;;;7.15;2.70;;;;;;;;;;5057697;28;20227;-53
2021/04/27 03:28:13;;;;;;;7.10;2.10;;;;;;;;;;5057716;28;20211;-49
2021/04/27 03:30:40;;;;;;;6.55;2.50;;;;;;;;;;5057171;28;20211;-56
2021/04/27 03:33:11;;;;;;;8.00;3.28;;;;;;;;;;5057636;28;20199;-54
2021/04/27 03:35:43;;;;;;;5.30;2.90;;;;;;;;;;5057789;28;20211;-55
2021/04/27 03:38:11;;;;;;;4.50;2.40;;;;;;;;;;5057118;28;20295;-54
2021/04/27 03:40:38;;;;;;;8.68;2.17;;;;;;;;;;5057053;28;20218;-56
2021/04/27 03:43:05;;;;;;;8.82;3.08;;;;;;;;;;5057170;28;20266;-54
2021/04/27 03:45:41;;;;;;;8.68;2.60;;;;;;;;;;5057299;28;20227;-49
2021/04/27 03:48:09;;;;;;;4.55;2.40;;;;;;;;;;5057028;28;20195;-57
2021/04/27 03:50:36;;;;;;;5.32;2.95;;;;;;;;;;5056689;28;20204;-56
2021/04/27 03:53:07;;;;;;;7.20;2.70;;;;;;;;;;5057109;28;20199;-55
2021/04/27 03:55:36;;;;;;;9.35;2.60;;;;;;;;;;5056624;28;20191;-54
2021/04/27 03:58:06;;;;;;;6.60;2.17;;;;;;;;;;5057192;28;20234;-54
2021/04/27 04:00:36;;;;;;;5.95;2.80;;;;;;;;;;5056360;28;20187;-48
2021/04/27 04:03:03;;;;;;;6.35;3.35;;;;;;;;;;5067715;28;20269;-52
2021/04/27 04:05:29;;;;;;;8.52;2.50;;;;;;;;;;5073628;28;20241;-52
2021/04/27 04:08:02;;;;;;;4.55;1.90;;;;;;;;;;5056854;28;20231;-55
2021/04/27 04:10:30;;;;;;;6.50;2.88;;;;;;;;;;5056275;28;20203;-52
2021/04/27 04:12:57;;;;;;;4.60;2.35;;;;;;;;;;5055953;28;20226;-51
2021/04/27 04:15:26;;;;;;;7.05;2.40;;;;;;;;;;5057175;28;20195;-53
2021/04/27 04:17:52;;;;;;;10.50;2.85;;;;;;;;;;5056079;28;20215;-59
2021/04/27 04:20:25;;;;;;;6.43;2.40;;;;;;;;;;5056905;28;20200;-52
2021/04/27 04:22:52;;;;;;;3.92;2.65;;;;;;;;;;5063279;28;20219;-55
2021/04/27 04:25:20;;;;;;;4.65;2.10;;;;;;;;;;5073632;28;20230;-55
2021/04/27 04:27:57;;;;;;;8.05;2.95;;;;;;;;;;5056843;28;20195;-58
2021/04/27 04:30:25;;;;;;;5.82;2.75;;;;;;;;;;5045245;28;20210;-54
2021/04/27 04:32:55;;;;;;;10.95;3.33;;;;;;;;;;5074834;28;20684;-56
2021/04/27 04:35:24;;;;;;;8.77;2.85;;;;;;;;;;5075294;28;20191;-56
2021/04/27 04:37:50;;;;;;;4.80;2.60;;;;;;;;;;5056989;28;20296;-53
2021/04/27 04:40:17;;;;;;;8.30;2.85;;;;;;;;;;5055226;28;20211;-50
2021/04/27 04:42:50;;;;;;;9.57;3.38;;;;;;;;;;5055650;28;20199;-61
2021/04/27 04:45:20;;;;;;;5.88;2.60;;;;;;;;;;5054616;28;20371;-58
2021/04/27 04:47:48;;;;;;;4.65;2.65;;;;;;;;;;5074480;28;20221;-55
2021/04/27 04:50:17;;;;;;;6.18;3.35;;;;;;;;;;5074869;28;20214;-58
2021/04/27 04:52:44;;;;;;;5.30;2.28;;;;;;;;;;5075033;28;20370;-52
2021/04/27 04:55:12;;;;;;;4.47;2.47;;;;;;;;;;5074839;28;20191;-58
2021/04/27 04:57:39;;;;;;;5.53;2.22;;;;;;;;;;5073815;28;20198;-58
2021/04/27 05:00:07;;;;;;;4.40;2.65;;;;;;;;;;5074675;28;20195;-56
2021/04/27 05:02:34;;;;;;;5.07;2.75;;;;;;;;;;5064391;28;20250;-55
2021/04/27 05:05:09;;;;;;;4.70;2.47;;;;;;;;;;5057685;28;20712;-54
2021/04/27 05:07:42;;;;;;;7.82;3.22;;;;;;;;;;5062618;28;20210;-56
2021/04/27 05:10:09;;;;;;;6.63;3.10;;;;;;;;;;5060900;28;20191;-55
2021/04/27 05:12:37;;;;;;;5.78;2.95;;;;;;;;;;5054128;28;20191;-60
2021/04/27 05:15:04;;;;;;;7.28;3.05;;;;;;;;;;5054296;28;20214;-52
2021/04/27 05:17:31;;;;;;;6.28;2.30;;;;;;;;;;5054518;28;20203;-55
2021/04/27 05:20:00;;;;;;;7.38;2.33;;;;;;;;;;5053642;28;20287;-52
2021/04/27 05:22:28;;;;;;;8.23;2.13;;;;;;;;;;5054326;28;20215;-55
2021/04/27 05:25:02;;;;;;;10.02;2.85;;;;;;;;;;5053011;28;20286;-57
2021/04/27 05:27:29;;;;;;;3.83;2.30;;;;;;;;;;5053539;28;20234;-57
2021/04/27 05:29:56;;;;;;;6.20;2.53;;;;;;;;;;5054207;28;20214;-57
2021/04/27 05:32:23;;;;;;;5.07;1.80;;;;;;;;;;5060773;28;20218;-56
2021/04/27 05:37:44;;;;;;;8.10;2.10;;;;;;;;;;5061938;28;20215;-56
2021/04/27 05:40:13;;;;;;;4.70;2.63;;;;;;;;;;5060861;28;20449;-58
2021/04/27 05:42:42;;;;;;;5.75;2.70;;;;;;;;;;5058964;28;20200;-56
2021/04/27 05:45:11;;;;;;;5.85;2.20;;;;;;;;;;5052569;28;20238;-51
2021/04/27 05:47:38;;;;;;;4.55;2.60;;;;;;;;;;5053941;28;20212;-54
2021/04/27 05:50:10;;;;;;;7.15;2.50;;;;;;;;;;5052645;28;20200;-51
2021/04/27 05:52:37;;;;;;;5.73;1.77;;;;;;;;;;5053178;28;20222;-54
2021/04/27 05:55:05;;;;;;;5.33;2.30;;;;;;;;;;5054142;28;20458;-57
2021/04/27 05:57:32;;;;;;;5.20;1.83;;;;;;;;;;5053633;28;20446;-54
2021/04/27 05:59:59;;;;;;;3.10;1.80;;;;;;;;;;5053664;28;20266;-58
2021/04/27 06:02:26;;;;;;;5.15;2.42;;;;;;;;;;5052832;28;20473;-58
2021/04/27 06:04:53;;;;;;;10.73;2.53;;;;;;;;;;5053241;28;20211;-57
2021/04/27 06:07:28;;;;;;;9.20;2.77;;;;;;;;;;5053712;28;20434;-55
2021/04/27 06:09:55;;;;;;;9.30;2.30;;;;;;;;;;5053641;28;20690;-52
2021/04/27 06:12:22;;;;;;;5.60;2.13;;;;;;;;;;5053057;28;20477;-53
2021/04/27 06:14:49;;;;;;;4.13;2.37;;;;;;;;;;5053425;28;20434;-57
2021/04/27 06:17:16;;;;;;;5.50;2.20;;;;;;;;;;5056776;28;20457;-56
2021/04/27 06:19:43;;;;;;;4.73;2.00;;;;;;;;;;5073431;28;20464;-58
2021/04/27 06:22:10;;;;;;;6.27;2.07;;;;;;;;;;5074359;28;20417;-56
2021/04/27 06:24:37;;;;;;;3.83;1.70;;;;;;;;;;5069446;28;20481;-56
2021/04/27 06:27:04;;;;;;;5.47;2.60;;;;;;;;;;5052652;28;20489;-60
2021/04/27 06:29:32;;;;;;;4.03;2.30;;;;;;;;;;5053023;28;20450;-60
2021/04/27 06:31:59;;;;;;;4.83;1.47;;;;;;;;;;5052392;28;20485;-57
2021/04/27 06:34:26;;;;;;;4.80;2.47;;;;;;;;;;5053133;28;20458;-57
2021/04/27 06:36:55;;;;;;;4.50;2.27;;;;;;;;;;5052677;28;20525;-57
2021/04/27 06:39:21;;;;;;;5.40;2.13;;;;;;;;;;5052910;28;20465;-57
2021/04/27 06:41:51;;;;;;;3.47;1.60;;;;;;;;;;5052482;28;20492;-59
2021/04/27 06:44:21;;;;;;;3.40;1.60;;;;;;;;;;5051942;28;20539;-55
2021/04/27 06:46:49;;;;;;;5.43;2.17;;;;;;;;;;5051699;28;20514;-56
2021/04/27 06:49:16;;;;;;;4.90;2.30;;;;;;;;;;5052415;28;20445;-59
2021/04/27 06:51:55;;;;;;;3.47;2.13;;;;;;;;;;5051922;28;20493;-60
2021/04/27 06:54:22;;;;;;;4.30;1.60;;;;;;;;;;5050998;28;20450;-59
2021/04/27 06:56:56;;;;;;;4.30;2.30;;;;;;;;;;5052563;28;20480;-61
2021/04/27 06:59:31;;;;;;;6.50;2.33;;;;;;;;;;5051749;28;20453;-58
2021/04/27 07:02:00;;;;;;;4.30;1.97;;;;;;;;;;5058608;28;20496;-58
2021/04/27 07:04:27;;;;;;;3.57;1.80;;;;;;;;;;5055688;28;20489;-58
2021/04/27 07:06:55;;;;;;;3.80;1.60;;;;;;;;;;5055876;28;20454;-51
2021/04/27 07:09:21;;;;;;;7.17;2.20;;;;;;;;;;5056002;28;20453;-56
2021/04/27 07:11:51;;;;;;;4.00;1.83;;;;;;;;;;5055819;28;20458;-58
2021/04/27 07:14:19;;;;;;;4.90;2.00;;;;;;;;;;5054591;28;20453;-56
2021/04/27 07:16:46;;;;;;;3.47;1.83;;;;;;;;;;5055153;28;20453;-51
2021/04/27 07:19:16;;;;;;;5.63;1.83;;;;;;;;;;5061016;28;20453;-54
2021/04/27 07:21:43;;;;;;;4.90;2.40;;;;;;;;;;5055886;28;20469;-58
2021/04/27 07:24:11;;;;;;;5.47;2.67;;;;;;;;;;5055405;28;20521;-57
2021/04/27 07:26:43;;;;;;;3.93;2.00;;;;;;;;;;5052380;28;20450;-59
2021/04/27 07:29:10;;;;;;;7.70;2.10;;;;;;;;;;5054859;28;20525;-58
2021/04/27 07:31:37;;;;;;;2.67;1.60;;;;;;;;;;5054101;28;20426;-59
2021/04/27 07:34:12;;;;;;;3.37;1.57;;;;;;;;;;5054573;28;20504;-60
2021/04/27 07:36:40;;;;;;;3.30;1.90;;;;;;;;;;5053741;28;20445;-56
2021/04/27 07:39:09;;;;;;;3.70;2.20;;;;;;;;;;5055624;28;20521;-54
2021/04/27 07:41:36;;;;;;;7.73;1.87;;;;;;;;;;5056348;28;20457;-58
2021/04/27 07:44:06;;;;;;;4.83;2.43;;;;;;;;;;5078240;28;20472;-49
2021/04/27 07:46:33;;;;;;;5.37;2.60;;;;;;;;;;5093268;28;20467;-55
2021/04/27 07:49:00;;;;;;;4.30;1.93;;;;;;;;;;5074626;28;20445;-55
2021/04/27 07:51:27;;;;;;;4.70;1.90;;;;;;;;;;5074524;28;20433;-57
2021/04/27 07:54:09;;;;;;;3.73;1.87;;;;;;;;;;5074306;28;20452;-57
2021/04/27 07:56:36;;;;;;;3.47;1.90;;;;;;;;;;5093146;28;20490;-58
2021/04/27 07:59:05;;;;;;;3.93;2.43;;;;;;;;;;5094757;28;20459;-58
2021/04/27 08:01:32;;;;;;;6.10;1.83;;;;;;;;;;5095501;28;20439;-55
2021/04/27 08:03:59;;;;;;;5.47;2.10;;;;;;;;;;5094345;28;20519;-56
2021/04/27 08:06:27;;;;;;;11.67;2.33;;;;;;;;;;5084601;28;20444;-56
2021/04/27 08:08:55;;;;;;;5.07;2.00;;;;;;;;;;5078362;28;20441;-54
2021/04/27 08:11:23;;;;;;;10.80;2.30;;;;;;;;;;5074768;28;20457;-54
2021/04/27 08:13:50;;;;;;;3.47;1.90;;;;;;;;;;5079316;28;20518;-57
2021/04/27 08:16:17;;;;;;;4.00;2.10;;;;;;;;;;5074848;28;20449;-58
2021/04/27 08:18:44;;;;;;;3.30;2.07;;;;;;;;;;5073229;28;20496;-58
2021/04/27 08:21:30;;;;;;;4.10;1.77;;;;;;;;;;5074473;28;20445;-56
2021/04/27 08:23:57;;;;;;;3.87;1.83;;;;;;;;;;5073372;28;20596;-57
2021/04/27 08:26:26;;;;;;;5.60;2.90;;;;;;;;;;5073517;28;20488;-58
2021/04/27 08:28:53;;;;;;;8.80;2.27;;;;;;;;;;5056265;28;20461;-55
2021/04/27 08:31:20;;;;;;;7.30;3.07;;;;;;;;;;5074049;28;20457;-61
2021/04/27 08:33:51;;;;;;;6.80;2.13;;;;;;;;;;5084774;28;20437;-55
2021/04/27 08:36:19;;;;;;;6.27;2.20;;;;;;;;;;5073351;28;20445;-56
2021/04/27 08:38:46;;;;;;;3.67;1.73;;;;;;;;;;5072709;28;20465;-60
2021/04/27 08:41:13;;;;;;;6.47;2.50;;;;;;;;;;5090529;28;20456;-59
2021/04/27 08:43:42;;;;;;;5.00;2.53;;;;;;;;;;5093225;28;20476;-55
2021/04/27 08:46:09;;;;;;;5.43;2.50;;;;;;;;;;5083673;28;20485;-57
2021/04/27 08:48:53;;;;;;;4.67;2.10;;;;;;;;;;5086421;28;20448;-54
2021/04/27 08:51:21;;;;;;;5.53;2.00;;;;;;;;;;5090802;28;20470;-53
2021/04/27 08:53:48;;;;;;;5.33;2.50;;;;;;;;;;5093494;28;20482;-55
2021/04/27 08:56:18;;;;;;;4.80;2.33;;;;;;;;;;5091812;28;20456;-57
2021/04/27 08:58:47;;;;;;;3.30;1.90;;;;;;;;;;5073974;28;20449;-52
2021/04/27 09:01:16;;;;;;;4.07;2.50;;;;;;;;;;5073216;28;20476;-56
2021/04/27 09:04:20;;;;;;;3.40;2.00;;;;;;;;;;5074041;28;20825;-56
2021/04/27 09:07:03;;;;;;;12.77;2.70;;;;;;;;;;5087372;28;20455;-57
2021/04/27 09:09:49;;;;;;;5.50;2.50;;;;;;;;;;5093454;28;20463;-60
2021/04/27 09:12:21;;;;;;;5.83;2.47;;;;;;;;;;5092867;28;20466;-55
2021/04/27 09:14:48;;;;;;;3.90;2.57;;;;;;;;;;5092820;28;20608;-64
2021/04/27 09:17:32;;;;;;;7.47;3.03;;;;;;;;;;5091887;28;20456;-52
2021/04/27 09:20:09;;;;;;;4.23;2.50;;;;;;;;;;5082033;28;20467;-51
2021/04/27 09:22:40;;;;;;;4.73;2.50;;;;;;;;;;5072695;28;20453;-57
2021/04/27 09:25:08;;;;;;;4.47;2.50;;;;;;;;;;5079738;28;20645;-59
2021/04/27 09:27:57;;;;;;;3.63;2.23;;;;;;;;;;5093205;28;20444;-56
2021/04/27 09:30:31;;;;;;;6.00;3.03;;;;;;;;;;5080295;28;20452;-53
2021/04/27 09:32:59;;;;;;;4.43;2.50;;;;;;;;;;5072607;28;20444;-57
2021/04/27 09:35:28;;;;;;;6.70;3.40;;;;;;;;;;5076659;28;20452;-56
2021/04/27 09:38:21;;;;;;;9.60;2.37;;;;;;;;;;5084427;28;20492;-55
2021/04/27 09:40:52;;;;;;;4.10;1.90;;;;;;;;;;5080279;28;20585;-55
2021/04/27 09:43:25;;;;;;;4.80;2.37;;;;;;;;;;5084495;28;20449;-52
2021/04/27 09:45:54;;;;;;;3.23;1.93;;;;;;;;;;5084473;28;20522;-61
2021/04/27 09:48:31;;;;;;;4.33;2.07;;;;;;;;;;5081067;28;20578;-57
2021/04/27 09:51:04;;;;;;;4.60;2.40;;;;;;;;;;5071674;28;20663;-57
2021/04/27 09:53:41;;;;;;;11.50;2.77;;;;;;;;;;5079697;28;20425;-60
2021/04/27 09:56:09;;;;;;;4.10;2.30;;;;;;;;;;5079186;28;20436;-59
2021/04/27 09:58:36;;;;;;;4.60;2.13;;;;;;;;;;5080932;28;20456;-58
2021/04/27 10:01:23;;;;;;;4.40;2.97;;;;;;;;;;5084566;28;20436;-61
2021/04/27 10:03:50;;;;;;;3.63;2.30;;;;;;;;;;5091210;28;20512;-54
2021/04/27 10:06:17;;;;;;;3.47;2.10;;;;;;;;;;5084661;28;20530;-54
2021/04/27 10:08:47;;;;;;;4.83;2.77;;;;;;;;;;5072363;28;20500;-52
2021/04/27 10:11:14;;;;;;;5.77;3.27;;;;;;;;;;5092197;28;20471;-58
2021/04/27 10:13:41;;;;;;;7.47;2.93;;;;;;;;;;5077734;28;20445;-57
2021/04/27 10:16:15;;;;;;;4.77;3.13;;;;;;;;;;5093811;28;20444;-61
2021/04/27 10:18:43;;;;;;;3.90;2.20;;;;;;;;;;5087110;28;20503;-52
2021/04/27 10:21:12;;;;;;;4.90;2.57;;;;;;;;;;5094363;28;20468;-55
2021/04/27 10:23:42;;;;;;;5.20;2.70;;;;;;;;;;5074489;28;20445;-58
2021/04/27 10:26:09;;;;;;;4.17;2.60;;;;;;;;;;5086143;28;20518;-55
2021/04/27 10:31:40;;;;;;;3.70;2.10;;;;;;;;;;5096260;28;20511;-51
2021/04/27 10:34:09;;;;;;;5.67;2.10;;;;;;;;;;5090665;28;20443;-59
2021/04/27 10:36:58;;;;;;;3.43;2.30;;;;;;;;;;5077988;28;20445;-57
2021/04/27 10:39:36;;;;;;;8.03;3.03;;;;;;;;;;5078587;28;20635;-58
2021/04/27 10:42:20;;;;;;;5.30;2.97;;;;;;;;;;5077438;28;20463;-56
2021/04/27 10:44:51;;;;;;;5.30;2.80;;;;;;;;;;5077490;28;20483;-58
2021/04/27 10:47:42;;;;;;;3.60;2.27;;;;;;;;;;5075933;28;20464;-60
2021/04/27 10:50:25;;;;;;;5.50;2.50;;;;;;;;;;5094172;28;20456;-54
2021/04/27 10:53:21;;;;;;;3.80;2.50;;;;;;;;;;5078432;28;20437;-58
2021/04/27 10:56:20;;;;;;;5.50;2.43;;;;;;;;;;5081103;28;20456;-54
2021/04/27 10:59:10;;;;;;;6.40;2.30;;;;;;;;;;5097106;28;20470;-54
2021/04/27 11:01:41;;;;;;;9.90;2.80;;;;;;;;;;5081947;28;20440;-54
2021/04/27 11:04:33;;;;;;;4.20;2.33;;;;;;;;;;5086690;28;20461;-55
2021/04/27 11:07:13;;;;;;;3.03;1.80;;;;;;;;;;5080647;28;20522;-53
2021/04/27 11:09:40;;;;;;;3.87;2.77;;;;;;;;;;5089869;28;20522;-55
2021/04/27 11:12:22;;;;;;;3.70;2.60;;;;;;;;;;5091653;28;20450;-59
2021/04/27 11:14:56;;;;;;;4.97;2.40;;;;;;;;;;5065758;28;20464;-58
2021/04/27 11:17:33;;;;;;;6.47;2.67;;;;;;;;;;5095140;28;20440;-56
2021/04/27 11:20:00;;;;;;;7.83;2.43;;;;;;;;;;5081275;28;20448;-57
2021/04/27 11:22:31;;;;;;;4.53;2.53;;;;;;;;;;5076052;28;20437;-58
2021/04/27 11:25:00;;;;;;;4.00;2.33;;;;;;;;;;5082885;28;20492;-56
2021/04/27 11:27:38;;;;;;;4.03;2.67;;;;;;;;;;5096239;28;20432;-56
2021/04/27 11:30:08;;;;;;;12.50;2.70;;;;;;;;;;5076649;28;20434;-58
2021/04/27 11:32:40;;;;;;;5.80;3.03;;;;;;;;;;5076434;28;20453;-55
2021/04/27 11:35:14;;;;;;;5.53;2.60;;;;;;;;;;5077916;28;20539;-55
2021/04/27 11:38:09;;;;;;;4.00;2.80;;;;;;;;;;5084350;28;20453;-57
2021/04/27 11:40:49;;;;;;;7.73;3.20;;;;;;;;;;5090010;28;20574;-59
2021/04/27 11:43:16;;;;;;;7.03;2.83;;;;;;;;;;5082487;28;20440;-57
2021/04/27 11:45:45;;;;;;;5.83;2.60;;;;;;;;;;5080205;28;20513;-58
2021/04/27 11:48:14;;;;;;;8.40;3.07;;;;;;;;;;5077863;28;20511;-49
2021/04/27 11:50:52;;;;;;;4.10;2.47;;;;;;;;;;5077654;28;20459;-56
2021/04/27 11:53:21;;;;;;;3.90;2.53;;;;;;;;;;5081568;28;20483;-61
2021/04/27 11:55:49;;;;;;;4.80;2.97;;;;;;;;;;5081973;28;20445;-60
2021/04/27 11:58:50;;;;;;;7.60;3.20;;;;;;;;;;5076408;28;20444;-55
2021/04/27 12:01:18;;;;;;;8.80;2.53;;;;;;;;;;5081906;28;20436;-57
2021/04/27 12:03:47;;;;;;;4.60;2.90;;;;;;;;;;5096781;28;20456;-55
2021/04/27 12:06:32;;;;;;;4.83;2.40;;;;;;;;;;5087929;28;20516;-56
2021/04/27 12:09:02;;;;;;;3.80;2.73;;;;;;;;;;5076654;28;20441;-53
2021/04/27 12:11:33;;;;;;;4.20;2.20;;;;;;;;;;5087525;28;20463;-56
2021/04/27 12:14:09;;;;;;;4.40;2.40;;;;;;;;;;5086738;28;20437;-54
2021/04/27 12:16:37;;;;;;;6.37;3.20;;;;;;;;;;5093604;28;20478;-51
2021/04/27 12:19:05;;;;;;;4.83;2.57;;;;;;;;;;5096358;28;20512;-57
2021/04/27 12:24:39;;;;;;;6.10;3.10;;;;;;;;;;5089821;28;20419;-55
2021/04/27 12:27:09;;;;;;;3.80;2.10;;;;;;;;;;5077588;28;20422;-55
2021/04/27 12:29:40;;;;;;;10.33;3.30;;;;;;;;;;5059043;28;20437;-55
2021/04/27 12:32:08;;;;;;;4.40;2.77;;;;;;;;;;5062673;28;20446;-57
2021/04/27 12:34:57;;;;;;;6.07;2.83;;;;;;;;;;5055504;28;20450;-59
2021/04/27 12:39:57;;;;;;;5.27;3.20;;;;;;;;;;5092103;28;20466;-54
2021/04/27 12:42:25;;;;;;;6.70;3.23;;;;;;;;;;5079344;28;20496;-56
2021/04/27 12:45:29;;;;;;;5.70;3.17;;;;;;;;;;5092758;28;20503;-55
2021/04/27 12:48:21;;;;;;;4.10;3.10;;;;;;;;;;5092063;28;20509;-54
2021/04/27 12:50:54;;;;;;;4.27;2.53;;;;;;;;;;5089468;28;20881;-60
2021/04/27 12:53:22;;;;;;;4.80;3.03;;;;;;;;;;5095424;28;20456;-56
2021/04/27 12:55:55;;;;;;;4.80;2.87;;;;;;;;;;5094214;28;20435;-57
2021/04/27 12:58:30;;;;;;;6.57;3.70;;;;;;;;;;5088080;28;20456;-51
2021/04/27 13:01:20;;;;;;;5.67;2.53;;;;;;;;;;5078469;28;20472;-54
2021/04/27 13:04:21;;;;;;;6.83;2.87;;;;;;;;;;5077536;28;20461;-59
2021/04/27 13:06:48;;;;;;;4.90;2.50;;;;;;;;;;5076349;28;20465;-57
2021/04/27 13:09:20;;;;;;;4.63;2.83;;;;;;;;;;5080541;28;20505;-57
2021/04/27 13:11:58;;;;;;;4.17;2.30;;;;;;;;;;5089144;28;20456;-55
2021/04/27 13:14:31;;;;;;;3.30;2.20;;;;;;;;;;5081923;28;20628;-55
2021/04/27 13:17:01;;;;;;;10.10;3.23;;;;;;;;;;5080936;28;20429;-57
2021/04/27 13:19:29;;;;;;;4.77;2.60;;;;;;;;;;5091399;28;20451;-57
2021/04/27 13:22:21;;;;;;;7.60;3.47;;;;;;;;;;5084494;28;20444;-58
2021/04/27 13:24:55;;;;;;;4.70;3.07;;;;;;;;;;5082903;28;20523;-55
2021/04/27 13:27:26;;;;;;;4.90;2.30;;;;;;;;;;5076007;28;20444;-57
2021/04/27 13:30:01;;;;;;;4.97;2.13;;;;;;;;;;5075316;28;20449;-57
2021/04/27 13:32:29;;;;;;;3.53;2.47;;;;;;;;;;5076219;28;20449;-58
2021/04/27 13:35:15;;;;;;;5.90;3.47;;;;;;;;;;5096319;28;20452;-55
2021/04/27 13:37:41;;;;;;;5.70;3.00;;;;;;;;;;5086063;28;20471;-55
2021/04/27 13:40:09;;;;;;;4.00;2.70;;;;;;;;;;5092371;28;20441;-56
2021/04/27 13:42:37;;;;;;;3.97;2.60;;;;;;;;;;5075161;28;20441;-57
2021/04/27 13:45:05;;;;;;;6.07;2.60;;;;;;;;;;5075250;28;20622;-50
2021/04/27 13:47:35;;;;;;;4.90;2.70;;;;;;;;;;5074912;28;20464;-55
2021/04/27 13:50:05;;;;;;;8.30;2.93;;;;;;;;;;5086111;28;20449;-55
2021/04/27 13:52:32;;;;;;;8.87;3.13;;;;;;;;;;5086623;28;20453;-56
2021/04/27 13:55:08;;;;;;;4.20;2.90;;;;;;;;;;5090932;28;20456;-55
2021/04/27 13:57:35;;;;;;;4.90;2.67;;;;;;;;;;5092387;28;20488;-57
2021/04/27 14:00:04;;;;;;;4.93;2.93;;;;;;;;;;5085305;28;20457;-53
2021/04/27 14:02:31;;;;;;;5.97;2.80;;;;;;;;;;5073273;28;20444;-55
2021/04/27 14:04:59;;;;;;;4.03;2.63;;;;;;;;;;5088708;28;20472;-51
2021/04/27 14:07:42;;;;;;;5.60;3.00;;;;;;;;;;5084455;28;20450;-59
2021/04/27 14:10:09;;;;;;;4.83;2.63;;;;;;;;;;5056752;28;20505;-60
2021/04/27 14:12:48;;;;;;;5.00;2.70;;;;;;;;;;5076758;28;20425;-55
2021/04/27 14:15:18;;;;;;;5.67;2.90;;;;;;;;;;5082244;28;20483;-57
2021/04/27 14:17:45;;;;;;;4.17;2.63;;;;;;;;;;5098224;28;20433;-59
2021/04/27 14:20:21;;;;;;;5.40;2.67;;;;;;;;;;5097655;28;20518;-50
2021/04/27 14:22:48;;;;;;;3.90;2.73;;;;;;;;;;5097168;28;20470;-51
2021/04/27 14:25:16;;;;;;;4.17;2.40;;;;;;;;;;5093457;28;20477;-53
2021/04/27 14:27:43;;;;;;;4.20;2.80;;;;;;;;;;5078088;28;20453;-54
2021/04/27 14:30:16;;;;;;;5.03;2.53;;;;;;;;;;5095586;28;20508;-55
2021/04/27 14:32:45;;;;;;;7.73;2.67;;;;;;;;;;5080674;28;20491;-57
2021/04/27 14:35:18;;;;;;;5.77;3.63;;;;;;;;;;5080702;28;20542;-60
2021/04/27 14:37:46;;;;;;;4.50;2.90;;;;;;;;;;5094121;28;20459;-51
2021/04/27 14:40:23;;;;;;;5.17;2.80;;;;;;;;;;5077529;28;20444;-59
2021/04/27 14:43:11;;;;;;;16.93;3.83;;;;;;;;;;5077988;28;20480;-52
2021/04/27 14:45:39;;;;;;;4.33;2.80;;;;;;;;;;5069864;28;20500;-57
2021/04/27 14:48:23;;;;;;;4.50;1.97;;;;;;;;;;5097873;28;20455;-58
2021/04/27 14:50:50;;;;;;;7.87;2.70;;;;;;;;;;5082996;28;20459;-59
2021/04/27 14:53:17;;;;;;;6.07;3.27;;;;;;;;;;5097884;28;20460;-59
2021/04/27 14:56:17;;;;;;;12.80;2.77;;;;;;;;;;5097478;28;20452;-57
2021/04/27 14:58:44;;;;;;;3.50;2.20;;;;;;;;;;5097265;28;20559;-54
2021/04/27 15:01:16;;;;;;;4.77;2.83;;;;;;;;;;5097673;28;20451;-56
2021/04/27 15:04:06;;;;;;;4.00;2.87;;;;;;;;;;5083784;28;20484;-50
2021/04/27 15:06:33;;;;;;;3.97;2.60;;;;;;;;;;5077592;28;20488;-55
2021/04/27 15:09:00;;;;;;;4.20;2.60;;;;;;;;;;5084757;28;20522;-58
2021/04/27 15:14:31;;;;;;;7.60;3.00;;;;;;;;;;5092612;28;20513;-55
2021/04/27 15:16:58;;;;;;;5.40;2.13;;;;;;;;;;5086246;28;20490;-52
2021/04/27 15:19:36;;;;;;;3.67;2.30;;;;;;;;;;5097750;28;20526;-59
2021/04/27 15:22:04;;;;;;;8.30;3.23;;;;;;;;;;5088278;28;20476;-60
2021/04/27 15:24:31;;;;;;;4.47;2.73;;;;;;;;;;5097499;28;20448;-56